sensor_id;sensor_type;location;lat;lon;timestamp;pressure;altitude;pressure_sealevel;temperature;humidity
25664;BME280;13522;50.018;20.014;2023-01-31T00:01:58;98083.88;;;1.85;100.00
25664;BME280;13522;50.018;20.014;2023-01-31T00:05:10;98084.30;;;1.79;100.00
25664;BME280;13522;50.018;20.014;2023-01-31T00:08:25;98090.99;;;1.83;100.00
25664;BME280;13522;50.018;20.014;2023-01-31T00:11:37;98078.86;;;1.82;100.00
25664;BME280;13522;50.018;20.014;2023-01-31T00:14:51;98077.17;;;1.81;100.00
25664;BME280;13522;50.018;20.014;2023-01-31T00:18:04;98082.41;;;1.81;100.00
25664;BME280;13522;50.018;20.014;2023-01-31T00:21:17;98085.02;;;1.81;100.00
25664;BME280;13522;50.018;20.014;2023-01-31T00:24:31;98104.50;;;1.77;100.00
25664;BME280;13522;50.018;20.014;2023-01-31T00:27:44;98107.34;;;1.74;100.00
25664;BME280;13522;50.018;20.014;2023-01-31T00:30:58;98095.48;;;1.68;100.00
25664;BME280;13522;50.018;20.014;2023-01-31T00:34:11;98096.64;;;1.64;100.00
25664;BME280;13522;50.018;20.014;2023-01-31T00:37:23;98111.94;;;1.58;100.00
25664;BME280;13522;50.018;20.014;2023-01-31T00:40:36;98117.58;;;1.52;100.00
25664;BME280;13522;50.018;20.014;2023-01-31T00:43:52;98123.66;;;1.52;100.00
25664;BME280;13522;50.018;20.014;2023-01-31T00:47:04;98123.73;;;1.51;100.00
25664;BME280;13522;50.018;20.014;2023-01-31T00:50:17;98115.16;;;1.49;100.00
25664;BME280;13522;50.018;20.014;2023-01-31T00:53:32;98121.13;;;1.51;100.00
25664;BME280;13522;50.018;20.014;2023-01-31T00:56:44;98123.00;;;1.49;100.00
25664;BME280;13522;50.018;20.014;2023-01-31T00:59:56;98124.47;;;1.53;100.00
25664;BME280;13522;50.018;20.014;2023-01-31T01:03:09;98123.55;;;1.54;100.00
25664;BME280;13522;50.018;20.014;2023-01-31T01:06:22;98116.55;;;1.54;100.00
25664;BME280;13522;50.018;20.014;2023-01-31T01:09:35;98125.13;;;1.56;100.00
25664;BME280;13522;50.018;20.014;2023-01-31T01:12:47;98140.83;;;1.56;100.00
25664;BME280;13522;50.018;20.014;2023-01-31T01:16:04;98150.02;;;1.49;100.00
25664;BME280;13522;50.018;20.014;2023-01-31T01:19:18;98148.84;;;1.41;100.00
25664;BME280;13522;50.018;20.014;2023-01-31T01:22:32;98154.58;;;1.33;100.00
25664;BME280;13522;50.018;20.014;2023-01-31T01:25:45;98148.50;;;1.33;100.00
25664;BME280;13522;50.018;20.014;2023-01-31T01:29:00;98146.63;;;1.35;100.00
25664;BME280;13522;50.018;20.014;2023-01-31T01:32:12;98147.47;;;1.35;100.00
25664;BME280;13522;50.018;20.014;2023-01-31T01:35:25;98151.56;;;1.39;100.00
25664;BME280;13522;50.018;20.014;2023-01-31T01:38:38;98149.57;;;1.43;100.00
25664;BME280;13522;50.018;20.014;2023-01-31T01:41:51;98165.08;;;1.46;100.00
25664;BME280;13522;50.018;20.014;2023-01-31T01:45:08;98166.11;;;1.43;100.00
25664;BME280;13522;50.018;20.014;2023-01-31T01:48:27;98169.58;;;1.44;100.00
25664;BME280;13522;50.018;20.014;2023-01-31T01:51:41;98169.47;;;1.45;100.00
25664;BME280;13522;50.018;20.014;2023-01-31T01:54:57;98172.71;;;1.49;100.00
25664;BME280;13522;50.018;20.014;2023-01-31T01:58:14;98163.39;;;1.45;100.00
25664;BME280;13522;50.018;20.014;2023-01-31T02:01:28;98170.09;;;1.49;100.00
25664;BME280;13522;50.018;20.014;2023-01-31T02:04:43;98173.45;;;1.51;100.00
25664;BME280;13522;50.018;20.014;2023-01-31T02:07:58;98176.80;;;1.53;100.00
25664;BME280;13522;50.018;20.014;2023-01-31T02:11:14;98187.93;;;1.56;100.00
25664;BME280;13522;50.018;20.014;2023-01-31T02:14:30;98186.23;;;1.55;100.00
25664;BME280;13522;50.018;20.014;2023-01-31T02:17:43;98171.97;;;1.47;100.00
25664;BME280;13522;50.018;20.014;2023-01-31T02:32:54;98209.09;;;1.66;100.00
25664;BME280;13522;50.018;20.014;2023-01-31T02:36:16;98212.44;;;1.68;100.00
25664;BME280;13522;50.018;20.014;2023-01-31T02:39:35;98220.81;;;1.73;100.00
25664;BME280;13522;50.018;20.014;2023-01-31T02:42:56;98225.02;;;1.75;100.00
25664;BME280;13522;50.018;20.014;2023-01-31T02:46:13;98220.52;;;1.78;100.00
25664;BME280;13522;50.018;20.014;2023-01-31T02:49:33;98230.88;;;1.79;100.00
25664;BME280;13522;50.018;20.014;2023-01-31T02:52:54;98232.56;;;1.80;100.00
25664;BME280;13522;50.018;20.014;2023-01-31T02:56:13;98230.69;;;1.82;100.00
25664;BME280;13522;50.018;20.014;2023-01-31T02:59:30;98240.94;;;1.85;100.00
25664;BME280;13522;50.018;20.014;2023-01-31T03:02:43;98247.87;;;1.86;100.00
25664;BME280;13522;50.018;20.014;2023-01-31T03:09:58;98264.94;;;1.92;100.00
25664;BME280;13522;50.018;20.014;2023-01-31T03:13:22;98263.88;;;1.94;100.00
25664;BME280;13522;50.018;20.014;2023-01-31T03:16:50;98273.20;;;1.98;100.00
25664;BME280;13522;50.018;20.014;2023-01-31T03:20:21;98269.66;;;1.99;100.00
25664;BME280;13522;50.018;20.014;2023-01-31T03:23:37;98267.56;;;2.04;100.00
25664;BME280;13522;50.018;20.014;2023-01-31T03:26:50;98272.61;;;2.07;100.00
25664;BME280;13522;50.018;20.014;2023-01-31T03:30:07;98280.36;;;2.09;100.00
25664;BME280;13522;50.018;20.014;2023-01-31T03:33:25;98284.55;;;2.11;100.00
25664;BME280;13522;50.018;20.014;2023-01-31T03:36:45;98289.91;;;2.10;100.00
25664;BME280;13522;50.018;20.014;2023-01-31T03:40:20;98295.77;;;2.13;100.00
25664;BME280;13522;50.018;20.014;2023-01-31T03:43:38;98300.90;;;2.15;100.00
25664;BME280;13522;50.018;20.014;2023-01-31T03:46:56;98304.36;;;2.15;100.00
25664;BME280;13522;50.018;20.014;2023-01-31T03:50:14;98306.98;;;2.15;100.00
25664;BME280;13522;50.018;20.014;2023-01-31T03:53:33;98303.41;;;2.16;100.00
25664;BME280;13522;50.018;20.014;2023-01-31T03:56:51;98315.77;;;2.14;100.00
25664;BME280;13522;50.018;20.014;2023-01-31T04:00:10;98321.11;;;2.13;100.00
25664;BME280;13522;50.018;20.014;2023-01-31T04:03:29;98317.46;;;2.15;100.00
25664;BME280;13522;50.018;20.014;2023-01-31T04:06:45;98321.22;;;2.11;100.00
25664;BME280;13522;50.018;20.014;2023-01-31T04:09:58;98325.50;;;2.12;100.00
25664;BME280;13522;50.018;20.014;2023-01-31T04:13:10;98333.36;;;2.12;100.00
25664;BME280;13522;50.018;20.014;2023-01-31T04:16:22;98333.36;;;2.12;100.00
25664;BME280;13522;50.018;20.014;2023-01-31T04:19:34;98330.96;;;2.09;100.00
25664;BME280;13522;50.018;20.014;2023-01-31T04:22:46;98342.17;;;2.11;100.00
25664;BME280;13522;50.018;20.014;2023-01-31T04:25:58;98337.86;;;2.10;100.00
25664;BME280;13522;50.018;20.014;2023-01-31T04:29:10;98342.36;;;2.08;100.00
25664;BME280;13522;50.018;20.014;2023-01-31T04:32:22;98347.59;;;2.08;100.00
25664;BME280;13522;50.018;20.014;2023-01-31T04:35:34;98345.20;;;2.05;100.00
25664;BME280;13522;50.018;20.014;2023-01-31T04:38:47;98357.55;;;2.03;100.00
25664;BME280;13522;50.018;20.014;2023-01-31T04:41:58;98356.99;;;1.98;100.00
25664;BME280;13522;50.018;20.014;2023-01-31T04:45:12;98369.34;;;1.96;100.00
25664;BME280;13522;50.018;20.014;2023-01-31T04:48:24;98378.37;;;1.92;100.00
25664;BME280;13522;50.018;20.014;2023-01-31T04:51:36;98383.79;;;1.89;100.00
25664;BME280;13522;50.018;20.014;2023-01-31T04:54:48;98390.27;;;1.84;100.00
25664;BME280;13522;50.018;20.014;2023-01-31T04:58:01;98403.45;;;1.82;100.00
25664;BME280;13522;50.018;20.014;2023-01-31T05:01:13;98399.14;;;1.81;100.00
25664;BME280;13522;50.018;20.014;2023-01-31T05:04:25;98404.48;;;1.80;100.00
25664;BME280;13522;50.018;20.014;2023-01-31T05:07:38;98408.13;;;1.77;100.00
25664;BME280;13522;50.018;20.014;2023-01-31T05:10:57;98411.70;;;1.76;100.00
25664;BME280;13522;50.018;20.014;2023-01-31T05:14:11;98424.05;;;1.74;100.00
25664;BME280;13522;50.018;20.014;2023-01-31T05:17:23;98421.60;;;1.71;100.00
25664;BME280;13522;50.018;20.014;2023-01-31T05:20:37;98432.92;;;1.71;100.00
25664;BME280;13522;50.018;20.014;2023-01-31T05:23:49;98434.90;;;1.68;100.00
25664;BME280;13522;50.018;20.014;2023-01-31T05:27:02;98441.05;;;1.67;100.00
25664;BME280;13522;50.018;20.014;2023-01-31T05:30:15;98456.97;;;1.64;100.00
25664;BME280;13522;50.018;20.014;2023-01-31T05:33:29;98455.57;;;1.58;100.00
25664;BME280;13522;50.018;20.014;2023-01-31T05:36:41;98467.81;;;1.58;100.00
25664;BME280;13522;50.018;20.014;2023-01-31T05:39:53;98458.36;;;1.55;100.00
25664;BME280;13522;50.018;20.014;2023-01-31T05:43:06;98466.11;;;1.57;100.00
25664;BME280;13522;50.018;20.014;2023-01-31T05:46:18;98471.34;;;1.57;100.00
25664;BME280;13522;50.018;20.014;2023-01-31T05:49:30;98483.52;;;1.58;100.00
25664;BME280;13522;50.018;20.014;2023-01-31T05:52:42;98490.23;;;1.62;100.00
25664;BME280;13522;50.018;20.014;2023-01-31T05:55:54;98491.80;;;1.64;100.00
25664;BME280;13522;50.018;20.014;2023-01-31T05:59:07;98504.07;;;1.64;100.00
25664;BME280;13522;50.018;20.014;2023-01-31T06:02:20;98504.81;;;1.66;100.00
25664;BME280;13522;50.018;20.014;2023-01-31T06:05:32;98505.56;;;1.68;100.00
25664;BME280;13522;50.018;20.014;2023-01-31T06:08:45;98502.84;;;1.69;100.00
25664;BME280;13522;50.018;20.014;2023-01-31T06:11:57;98510.59;;;1.71;100.00
25664;BME280;13522;50.018;20.014;2023-01-31T06:15:11;98514.81;;;1.73;100.00
25664;BME280;13522;50.018;20.014;2023-01-31T06:18:24;98526.13;;;1.74;100.00
25664;BME280;13522;50.018;20.014;2023-01-31T06:21:36;98538.16;;;1.76;100.00
25664;BME280;13522;50.018;20.014;2023-01-31T06:24:49;98546.87;;;1.77;100.00
25664;BME280;13522;50.018;20.014;2023-01-31T06:28:01;98539.86;;;1.78;100.00
25664;BME280;13522;50.018;20.014;2023-01-31T06:31:13;98558.08;;;1.79;100.00
25664;BME280;13522;50.018;20.014;2023-01-31T06:34:26;98563.15;;;1.82;100.00
25664;BME280;13522;50.018;20.014;2023-01-31T06:37:38;98567.64;;;1.80;100.00
25664;BME280;13522;50.018;20.014;2023-01-31T06:40:50;98567.64;;;1.80;100.00
25664;BME280;13522;50.018;20.014;2023-01-31T06:44:02;98568.76;;;1.76;100.00
25664;BME280;13522;50.018;20.014;2023-01-31T06:47:15;98575.76;;;1.75;100.00
25664;BME280;13522;50.018;20.014;2023-01-31T06:50:27;98582.11;;;1.71;100.00
25664;BME280;13522;50.018;20.014;2023-01-31T06:53:39;98592.69;;;1.70;100.00
25664;BME280;13522;50.018;20.014;2023-01-31T06:56:51;98603.16;;;1.70;100.00
25664;BME280;13522;50.018;20.014;2023-01-31T07:00:04;98607.54;;;1.69;100.00
25664;BME280;13522;50.018;20.014;2023-01-31T07:03:18;98606.69;;;1.69;100.00
25664;BME280;13522;50.018;20.014;2023-01-31T07:06:30;98618.86;;;1.70;100.00
25664;BME280;13522;50.018;20.014;2023-01-31T07:09:42;98623.05;;;1.72;100.00
25664;BME280;13522;50.018;20.014;2023-01-31T07:12:54;98632.86;;;1.69;100.00
25664;BME280;13522;50.018;20.014;2023-01-31T07:16:08;98648.30;;;1.73;100.00
25664;BME280;13522;50.018;20.014;2023-01-31T07:19:22;98645.48;;;1.76;100.00
25664;BME280;13522;50.018;20.014;2023-01-31T07:22:34;98654.94;;;1.79;100.00
25664;BME280;13522;50.018;20.014;2023-01-31T07:25:46;98660.18;;;1.79;100.00
25664;BME280;13522;50.018;20.014;2023-01-31T07:28:58;98656.64;;;1.80;100.00
25664;BME280;13522;50.018;20.014;2023-01-31T07:32:10;98661.69;;;1.83;100.00
25664;BME280;13522;50.018;20.014;2023-01-31T07:35:22;98680.76;;;1.85;100.00
25664;BME280;13522;50.018;20.014;2023-01-31T07:38:35;98672.16;;;1.83;100.00
25664;BME280;13522;50.018;20.014;2023-01-31T07:41:47;98666.92;;;1.83;100.00
25664;BME280;13522;50.018;20.014;2023-01-31T07:45:01;98668.69;;;1.83;100.00
25664;BME280;13522;50.018;20.014;2023-01-31T07:48:16;98673.00;;;1.84;100.00
25664;BME280;13522;50.018;20.014;2023-01-31T07:51:28;98680.01;;;1.83;100.00
25664;BME280;13522;50.018;20.014;2023-01-31T07:54:40;98679.16;;;1.83;100.00
25664;BME280;13522;50.018;20.014;2023-01-31T07:57:52;98679.09;;;1.84;100.00
25664;BME280;13522;50.018;20.014;2023-01-31T08:01:04;98685.24;;;1.83;100.00
25664;BME280;13522;50.018;20.014;2023-01-31T08:04:30;98680.01;;;1.83;100.00
25664;BME280;13522;50.018;20.014;2023-01-31T08:07:42;98681.34;;;1.90;100.00
25664;BME280;13522;50.018;20.014;2023-01-31T08:10:57;98680.30;;;1.93;100.00
25664;BME280;13522;50.018;20.014;2023-01-31T08:14:10;98685.63;;;1.91;100.00
25664;BME280;13522;50.018;20.014;2023-01-31T08:17:22;98690.41;;;1.99;100.00
25664;BME280;13522;50.018;20.014;2023-01-31T08:20:34;98692.11;;;2.00;100.00
25664;BME280;13522;50.018;20.014;2023-01-31T08:23:48;98704.15;;;2.02;100.00
25664;BME280;13522;50.018;20.014;2023-01-31T08:27:00;98708.38;;;2.05;100.00
25664;BME280;13522;50.018;20.014;2023-01-31T08:30:14;98716.13;;;2.06;100.00
25664;BME280;13522;50.018;20.014;2023-01-31T08:33:27;98719.33;;;2.11;100.00
25664;BME280;13522;50.018;20.014;2023-01-31T08:36:39;98723.98;;;2.06;100.00
25664;BME280;13522;50.018;20.014;2023-01-31T08:39:51;98726.44;;;2.09;100.00
25664;BME280;13522;50.018;20.014;2023-01-31T08:43:03;98716.13;;;2.06;100.00
25664;BME280;13522;50.018;20.014;2023-01-31T08:46:15;98724.58;;;2.11;100.00
25664;BME280;13522;50.018;20.014;2023-01-31T08:49:27;98733.08;;;2.15;100.00
25664;BME280;13522;50.018;20.014;2023-01-31T08:52:42;98736.35;;;2.18;100.00
25664;BME280;13522;50.018;20.014;2023-01-31T08:55:58;98727.38;;;2.22;100.00
25664;BME280;13522;50.018;20.014;2023-01-31T08:59:13;98743.38;;;2.32;100.00
25664;BME280;13522;50.018;20.014;2023-01-31T09:02:25;98738.82;;;2.35;100.00
25664;BME280;13522;50.018;20.014;2023-01-31T09:05:37;98744.61;;;2.40;100.00
25664;BME280;13522;50.018;20.014;2023-01-31T09:08:49;98747.81;;;2.45;100.00
25664;BME280;13522;50.018;20.014;2023-01-31T09:12:03;98752.58;;;2.53;100.00
25664;BME280;13522;50.018;20.014;2023-01-31T09:15:17;98746.31;;;2.41;100.00
25664;BME280;13522;50.018;20.014;2023-01-31T09:18:29;98764.67;;;2.55;100.00
25664;BME280;13522;50.018;20.014;2023-01-31T09:21:41;98750.23;;;2.62;100.00
25664;BME280;13522;50.018;20.014;2023-01-31T09:24:53;98759.02;;;2.61;100.00
25664;BME280;13522;50.018;20.014;2023-01-31T09:28:05;98755.20;;;2.53;100.00
25664;BME280;13522;50.018;20.014;2023-01-31T09:31:19;98750.81;;;2.53;100.00
25664;BME280;13522;50.018;20.014;2023-01-31T09:34:31;98746.48;;;2.52;100.00
25664;BME280;13522;50.018;20.014;2023-01-31T09:37:43;98751.16;;;2.61;100.00
25664;BME280;13522;50.018;20.014;2023-01-31T09:40:57;98756.97;;;2.67;100.00
25664;BME280;13522;50.018;20.014;2023-01-31T09:44:15;98756.59;;;2.58;100.00
25664;BME280;13522;50.018;20.014;2023-01-31T09:47:30;98756.80;;;2.55;100.00
25664;BME280;13522;50.018;20.014;2023-01-31T09:50:48;98754.18;;;2.55;100.00
25664;BME280;13522;50.018;20.014;2023-01-31T09:54:06;98753.23;;;2.56;100.00
25664;BME280;13522;50.018;20.014;2023-01-31T09:57:28;98756.59;;;2.58;100.00
25664;BME280;13522;50.018;20.014;2023-01-31T10:00:49;98760.52;;;2.65;100.00
25664;BME280;13522;50.018;20.014;2023-01-31T10:07:42;98750.81;;;2.53;100.00
25664;BME280;13522;50.018;20.014;2023-01-31T10:10:59;98761.67;;;2.47;100.00
25664;BME280;13522;50.018;20.014;2023-01-31T10:14:24;98757.45;;;2.45;100.00
25664;BME280;13522;50.018;20.014;2023-01-31T10:17:41;98752.47;;;2.40;100.00
25664;BME280;13522;50.018;20.014;2023-01-31T10:21:01;98756.69;;;2.43;100.00
25664;BME280;13522;50.018;20.014;2023-01-31T10:24:19;98756.22;;;2.50;100.00
25664;BME280;13522;50.018;20.014;2023-01-31T10:27:41;98766.23;;;2.58;100.00
25664;BME280;13522;50.018;20.014;2023-01-31T10:30:59;98768.69;;;2.61;100.00
25664;BME280;13522;50.018;20.014;2023-01-31T10:34:17;98769.13;;;2.68;100.00
25664;BME280;13522;50.018;20.014;2023-01-31T10:37:36;98766.34;;;2.71;100.00
25664;BME280;13522;50.018;20.014;2023-01-31T10:40:55;98771.30;;;2.61;100.00
25664;BME280;13522;50.018;20.014;2023-01-31T10:44:14;98765.86;;;2.64;100.00
25664;BME280;13522;50.018;20.014;2023-01-31T10:47:32;98774.95;;;2.73;100.00
25664;BME280;13522;50.018;20.014;2023-01-31T10:50:54;98769.23;;;2.80;100.00
25664;BME280;13522;50.018;20.014;2023-01-31T10:54:19;98761.27;;;2.68;100.00
25664;BME280;13522;50.018;20.014;2023-01-31T10:57:34;98780.36;;;2.70;100.00
25664;BME280;13522;50.018;20.014;2023-01-31T11:00:47;98779.55;;;2.55;100.00
25664;BME280;13522;50.018;20.014;2023-01-31T11:04:01;98768.59;;;2.62;100.00
25664;BME280;13522;50.018;20.014;2023-01-31T11:07:18;98773.63;;;2.65;100.00
25664;BME280;13522;50.018;20.014;2023-01-31T11:10:32;98768.11;;;2.70;100.00
25664;BME280;13522;50.018;20.014;2023-01-31T11:13:56;98760.72;;;2.77;100.00
25664;BME280;13522;50.018;20.014;2023-01-31T11:17:15;98761.84;;;2.73;98.98
25664;BME280;13522;50.018;20.014;2023-01-31T11:20:31;98751.52;;;2.84;98.59
25664;BME280;13522;50.018;20.014;2023-01-31T11:23:45;98765.38;;;2.86;98.15
25664;BME280;13522;50.018;20.014;2023-01-31T11:27:01;98754.89;;;2.86;97.97
25664;BME280;13522;50.018;20.014;2023-01-31T11:30:24;98755.63;;;2.88;97.18
25664;BME280;13522;50.018;20.014;2023-01-31T11:33:43;98751.03;;;2.91;97.01
25664;BME280;13522;50.018;20.014;2023-01-31T11:37:01;98751.52;;;2.84;96.30
25664;BME280;13522;50.018;20.014;2023-01-31T11:40:23;98758.46;;;2.85;94.89
25664;BME280;13522;50.018;20.014;2023-01-31T11:43:39;98761.45;;;2.93;94.09
25664;BME280;13522;50.018;20.014;2023-01-31T11:46:56;98762.59;;;2.75;95.23
25664;BME280;13522;50.018;20.014;2023-01-31T11:50:20;98759.59;;;2.67;96.84
25664;BME280;13522;50.018;20.014;2023-01-31T11:53:37;98756.23;;;2.64;98.09
25664;BME280;13522;50.018;20.014;2023-01-31T11:56:52;98750.61;;;2.71;98.15
25664;BME280;13522;50.018;20.014;2023-01-31T12:00:17;98746.58;;;2.79;97.68
25664;BME280;13522;50.018;20.014;2023-01-31T12:03:31;98748.52;;;2.90;98.08
25664;BME280;13522;50.018;20.014;2023-01-31T12:06:58;98753.66;;;2.91;97.45
25664;BME280;13522;50.018;20.014;2023-01-31T12:10:40;98743.66;;;2.84;98.16
25664;BME280;13522;50.018;20.014;2023-01-31T12:13:53;98748.84;;;2.71;99.51
25664;BME280;13522;50.018;20.014;2023-01-31T12:17:14;98740.85;;;2.87;99.63
25664;BME280;13522;50.018;20.014;2023-01-31T12:20:35;98735.14;;;2.80;99.43
25664;BME280;13522;50.018;20.014;2023-01-31T12:23:55;98742.91;;;2.82;99.10
25664;BME280;13522;50.018;20.014;2023-01-31T12:27:19;98732.80;;;2.76;99.24
25664;BME280;13522;50.018;20.014;2023-01-31T12:31:03;98736.09;;;2.79;99.39
25664;BME280;13522;50.018;20.014;2023-01-31T12:34:34;98725.67;;;2.78;98.97
25664;BME280;13522;50.018;20.014;2023-01-31T12:37:59;98736.73;;;2.83;96.85
25664;BME280;13522;50.018;20.014;2023-01-31T12:41:25;98734.29;;;2.80;96.58
25664;BME280;13522;50.018;20.014;2023-01-31T12:44:46;98734.11;;;2.83;94.79
25664;BME280;13522;50.018;20.014;2023-01-31T12:48:22;98734.48;;;2.91;94.26
25664;BME280;13522;50.018;20.014;2023-01-31T12:51:44;98725.91;;;3.01;94.37
25664;BME280;13522;50.018;20.014;2023-01-31T12:55:09;98727.89;;;2.98;92.80
25664;BME280;13522;50.018;20.014;2023-01-31T12:58:39;98725.38;;;2.96;92.17
25664;BME280;13522;50.018;20.014;2023-01-31T13:01:58;98732.19;;;3.13;91.14
25664;BME280;13522;50.018;20.014;2023-01-31T13:05:20;98723.18;;;3.17;90.06
25664;BME280;13522;50.018;20.014;2023-01-31T13:08:36;98705.82;;;3.41;89.04
25664;BME280;13522;50.018;20.014;2023-01-31T13:11:56;98712.42;;;3.34;89.61
25664;BME280;13522;50.018;20.014;2023-01-31T13:15:17;98701.87;;;3.21;90.21
25664;BME280;13522;50.018;20.014;2023-01-31T13:18:32;98704.73;;;3.31;90.29
25664;BME280;13522;50.018;20.014;2023-01-31T13:21:48;98705.42;;;3.47;90.10
25664;BME280;13522;50.018;20.014;2023-01-31T13:25:11;98706.33;;;3.33;91.18
25664;BME280;13522;50.018;20.014;2023-01-31T13:28:27;98705.59;;;3.31;93.21
25664;BME280;13522;50.018;20.014;2023-01-31T13:31:45;98706.48;;;3.18;94.83
25664;BME280;13522;50.018;20.014;2023-01-31T13:35:04;98709.11;;;3.18;95.49
25664;BME280;13522;50.018;20.014;2023-01-31T13:38:20;98703.33;;;3.13;96.21
25664;BME280;13522;50.018;20.014;2023-01-31T13:41:33;98714.00;;;3.10;96.87
25664;BME280;13522;50.018;20.014;2023-01-31T13:44:47;98711.77;;;3.04;96.63
25664;BME280;13522;50.018;20.014;2023-01-31T13:48:02;98692.27;;;2.81;96.55
25664;BME280;13522;50.018;20.014;2023-01-31T13:51:19;98704.78;;;2.90;96.91
25664;BME280;13522;50.018;20.014;2023-01-31T13:54:36;98705.27;;;2.83;97.70
25664;BME280;13522;50.018;20.014;2023-01-31T13:57:56;98693.44;;;2.90;98.30
25664;BME280;13522;50.018;20.014;2023-01-31T14:01:16;98697.04;;;2.75;98.17
25664;BME280;13522;50.018;20.014;2023-01-31T14:04:36;98699.09;;;2.70;98.16
25664;BME280;13522;50.018;20.014;2023-01-31T14:07:54;98700.15;;;2.67;98.13
25664;BME280;13522;50.018;20.014;2023-01-31T14:11:35;98705.66;;;2.62;98.49
25664;BME280;13522;50.018;20.014;2023-01-31T14:14:56;98698.93;;;2.58;98.73
25664;BME280;13522;50.018;20.014;2023-01-31T14:18:09;98704.81;;;2.62;98.93
25664;BME280;13522;50.018;20.014;2023-01-31T14:21:53;98701.92;;;2.67;99.58
25664;BME280;13522;50.018;20.014;2023-01-31T14:25:13;98701.92;;;2.67;99.63
25664;BME280;13522;50.018;20.014;2023-01-31T14:28:27;98690.79;;;2.63;99.98
25664;BME280;13522;50.018;20.014;2023-01-31T14:31:41;98687.42;;;2.61;100.00
25664;BME280;13522;50.018;20.014;2023-01-31T14:34:54;98686.67;;;2.59;100.00
25664;BME280;13522;50.018;20.014;2023-01-31T14:38:12;98681.53;;;2.57;100.00
25664;BME280;13522;50.018;20.014;2023-01-31T14:41:30;98686.78;;;2.57;100.00
25664;BME280;13522;50.018;20.014;2023-01-31T14:44:53;98689.47;;;2.56;100.00
25664;BME280;13522;50.018;20.014;2023-01-31T14:48:19;98684.71;;;2.48;100.00
25664;BME280;13522;50.018;20.014;2023-01-31T14:51:51;98676.67;;;2.51;100.00
25664;BME280;13522;50.018;20.014;2023-01-31T14:55:30;98676.67;;;2.51;100.00
25664;BME280;13522;50.018;20.014;2023-01-31T14:58:47;98677.80;;;2.47;100.00
25664;BME280;13522;50.018;20.014;2023-01-31T15:01:59;98669.94;;;2.47;100.00
25664;BME280;13522;50.018;20.014;2023-01-31T15:05:43;98676.74;;;2.50;100.00
25664;BME280;13522;50.018;20.014;2023-01-31T15:09:26;98674.33;;;2.47;100.00
25664;BME280;13522;50.018;20.014;2023-01-31T15:12:57;98676.48;;;2.40;100.00
25664;BME280;13522;50.018;20.014;2023-01-31T15:16:16;98667.13;;;2.36;100.00
25664;BME280;13522;50.018;20.014;2023-01-31T15:19:38;98671.06;;;2.29;100.00
25664;BME280;13522;50.018;20.014;2023-01-31T15:22:57;98664.33;;;2.25;100.00
25664;BME280;13522;50.018;20.014;2023-01-31T15:29:18;98670.42;;;2.12;100.00
25664;BME280;13522;50.018;20.014;2023-01-31T15:32:36;98668.98;;;2.06;100.00
25664;BME280;13522;50.018;20.014;2023-01-31T15:35:53;98663.95;;;2.03;100.00
25664;BME280;13522;50.018;20.014;2023-01-31T15:39:17;98668.70;;;1.97;100.00
25664;BME280;13522;50.018;20.014;2023-01-31T15:42:33;98661.15;;;1.92;100.00
25664;BME280;13522;50.018;20.014;2023-01-31T15:45:45;98667.20;;;1.93;100.00
25664;BME280;13522;50.018;20.014;2023-01-31T15:48:58;98653.56;;;1.88;100.00
25664;BME280;13522;50.018;20.014;2023-01-31T15:52:16;98657.20;;;1.85;100.00
25664;BME280;13522;50.018;20.014;2023-01-31T15:55:30;98656.08;;;1.89;100.00
25664;BME280;13522;50.018;20.014;2023-01-31T15:58:46;98654.48;;;1.87;100.00
25664;BME280;13522;50.018;20.014;2023-01-31T16:02:02;98644.30;;;1.82;100.00
25664;BME280;13522;50.018;20.014;2023-01-31T16:05:22;98639.44;;;1.76;100.00
25664;BME280;13522;50.018;20.014;2023-01-31T16:08:37;98640.62;;;1.70;100.00
25664;BME280;13522;50.018;20.014;2023-01-31T16:11:50;98627.47;;;1.72;100.00
25664;BME280;13522;50.018;20.014;2023-01-31T16:15:06;98624.84;;;1.72;100.00
25664;BME280;13522;50.018;20.014;2023-01-31T16:18:26;98622.03;;;1.75;100.00
25664;BME280;13522;50.018;20.014;2023-01-31T16:21:40;98621.02;;;1.78;100.00
25664;BME280;13522;50.018;20.014;2023-01-31T16:24:56;98618.13;;;1.82;100.00
25664;BME280;13522;50.018;20.014;2023-01-31T16:28:12;98615.78;;;1.78;100.00
25664;BME280;13522;50.018;20.014;2023-01-31T16:31:26;98621.38;;;1.71;100.00
25664;BME280;13522;50.018;20.014;2023-01-31T16:34:42;98617.36;;;1.66;100.00
25664;BME280;13522;50.018;20.014;2023-01-31T16:38:03;98617.72;;;1.60;100.00
25664;BME280;13522;50.018;20.014;2023-01-31T16:41:17;98619.59;;;1.58;100.00
25664;BME280;13522;50.018;20.014;2023-01-31T16:44:39;98611.84;;;1.56;100.00
25664;BME280;13522;50.018;20.014;2023-01-31T16:47:51;98617.50;;;1.49;100.00
25664;BME280;13522;50.018;20.014;2023-01-31T16:54:53;98619.36;;;1.47;100.00
25664;BME280;13522;50.018;20.014;2023-01-31T16:58:10;98613.38;;;1.45;100.00
25664;BME280;13522;50.018;20.014;2023-01-31T17:01:26;98609.00;;;1.45;100.00
25664;BME280;13522;50.018;20.014;2023-01-31T17:04:40;98617.30;;;1.38;100.00
25664;BME280;13522;50.018;20.014;2023-01-31T17:07:53;98604.97;;;1.40;100.00
25664;BME280;13522;50.018;20.014;2023-01-31T17:11:07;98607.39;;;1.43;100.00
25664;BME280;13522;50.018;20.014;2023-01-31T17:14:23;98607.69;;;1.38;100.00
25664;BME280;13522;50.018;20.014;2023-01-31T17:17:38;98600.85;;;1.36;100.00
25664;BME280;13522;50.018;20.014;2023-01-31T17:20:50;98593.00;;;1.36;100.00
25664;BME280;13522;50.018;20.014;2023-01-31T17:24:03;98593.36;;;1.30;100.00
25664;BME280;13522;50.018;20.014;2023-01-31T17:27:19;98588.13;;;1.30;100.00
25664;BME280;13522;50.018;20.014;2023-01-31T17:30:32;98585.52;;;1.30;100.00
25664;BME280;13522;50.018;20.014;2023-01-31T17:33:46;98587.02;;;1.34;100.00
25664;BME280;13522;50.018;20.014;2023-01-31T17:36:58;98591.50;;;1.32;100.00